createdAt,value
2018-12-27T00:01:08.469Z,17.53
2018-12-27T00:03:37.421Z,20.33
2018-12-27T00:06:06.477Z,18.90
2018-12-27T00:08:35.525Z,18.37
2018-12-27T00:11:04.437Z,18.30
2018-12-27T00:13:33.833Z,17.67
2018-12-27T00:16:02.825Z,18.90
2018-12-27T00:18:31.709Z,19.37
2018-12-27T00:21:00.670Z,20.10
2018-12-27T00:23:29.557Z,18.93
2018-12-27T00:25:58.429Z,17.83
2018-12-27T00:28:27.470Z,18.13
2018-12-27T00:30:56.521Z,20.40
2018-12-27T00:33:26.105Z,19.93
2018-12-27T00:35:55.201Z,22.03
2018-12-27T00:38:24.241Z,20.03
2018-12-27T00:40:53.281Z,20.10
2018-12-27T00:43:22.297Z,19.03
2018-12-27T00:45:51.365Z,20.93
2018-12-27T00:48:20.402Z,18.23
2018-12-27T00:50:49.449Z,19.53
2018-12-27T00:53:18.866Z,18.87
2018-12-27T00:55:47.910Z,20.53
2018-12-27T00:58:16.913Z,18.50
2018-12-27T01:00:46.182Z,20.83
2018-12-27T01:03:15.229Z,21.60
2018-12-27T01:05:44.283Z,18.03
2018-12-27T01:08:13.314Z,22.47
2018-12-27T01:10:42.386Z,28.97
2018-12-27T01:13:11.697Z,32.60
2018-12-27T01:15:41.179Z,22.80
2018-12-27T01:18:10.193Z,21.77
2018-12-27T01:20:39.506Z,22.23
2018-12-27T01:23:08.553Z,29.80
2018-12-27T01:25:37.858Z,23.33
2018-12-27T01:28:06.878Z,27.33
2018-12-27T01:30:36.206Z,26.30
2018-12-27T01:33:05.263Z,20.47
2018-12-27T01:35:34.290Z,21.33
2018-12-27T01:38:03.307Z,19.43
2018-12-27T01:40:32.346Z,20.50
2018-12-27T01:43:01.678Z,20.77
2018-12-27T01:45:30.726Z,18.77
2018-12-27T01:47:59.203Z,27.40
2018-12-27T01:50:28.238Z,22.60
2018-12-27T01:52:57.274Z,28.30
2018-12-27T01:55:26.316Z,21.07
2018-12-27T01:57:55.456Z,17.07
2018-12-27T02:00:24.771Z,16.43
2018-12-27T02:02:53.811Z,17.20
2018-12-27T02:05:22.891Z,19.17
2018-12-27T02:07:52.182Z,18.43
2018-12-27T02:10:21.231Z,17.33
2018-12-27T02:12:50.310Z,17.30
2018-12-27T02:15:19.355Z,18.10
2018-12-27T02:17:48.395Z,15.80
2018-12-27T02:20:17.427Z,18.93
2018-12-27T02:22:46.776Z,17.60
2018-12-27T02:25:15.822Z,18.73
2018-12-27T02:27:44.958Z,19.20
2018-12-27T02:30:14.327Z,19.90
2018-12-27T02:32:43.388Z,16.73
2018-12-27T02:35:12.444Z,15.67
2018-12-27T02:37:41.458Z,17.63
2018-12-27T02:40:10.484Z,20.47
2018-12-27T02:42:39.572Z,16.60
2018-12-27T02:45:08.601Z,21.67
2018-12-27T02:47:37.700Z,17.03
2018-12-27T02:50:06.780Z,17.90
2018-12-27T02:52:35.832Z,16.17
2018-12-27T02:55:04.940Z,17.47
2018-12-27T02:57:33.991Z,19.03
2018-12-27T03:00:03.039Z,13.70
2018-12-27T03:02:32.071Z,16.23
2018-12-27T03:05:01.129Z,15.10
2018-12-27T03:07:30.151Z,15.00
2018-12-27T03:09:59.267Z,19.50
2018-12-27T03:12:28.668Z,17.07
2018-12-27T03:14:57.968Z,17.10
2018-12-27T03:17:27.008Z,15.67
2018-12-27T03:19:56.316Z,16.90
2018-12-27T03:22:25.339Z,16.60
2018-12-27T03:24:54.381Z,18.00
2018-12-27T03:27:23.678Z,17.90
2018-12-27T03:29:52.711Z,15.83
2018-12-27T03:32:21.801Z,18.13
2018-12-27T03:34:50.860Z,16.30
2018-12-27T03:37:20.370Z,18.37
2018-12-27T03:39:49.747Z,16.20
2018-12-27T03:42:18.777Z,17.13
2018-12-27T03:44:47.840Z,16.63
2018-12-27T03:47:16.877Z,15.63
2018-12-27T03:49:45.909Z,14.10
2018-12-27T03:52:14.949Z,17.30
2018-12-27T03:54:44.293Z,18.77
2018-12-27T03:57:12.797Z,21.07
2018-12-27T03:59:41.277Z,18.57
2018-12-27T04:02:09.765Z,18.57
2018-12-27T04:04:38.266Z,18.23
2018-12-27T04:07:06.749Z,18.33
2018-12-27T04:09:35.229Z,18.03
2018-12-27T04:12:03.736Z,17.13
2018-12-27T04:14:32.238Z,18.30
2018-12-27T04:17:00.639Z,20.80
2018-12-27T04:19:29.049Z,18.23
2018-12-27T04:21:57.461Z,18.00
2018-12-27T04:24:25.954Z,16.57
2018-12-27T04:26:54.369Z,19.60
2018-12-27T04:29:22.837Z,20.40
2018-12-27T04:31:52.793Z,20.47
2018-12-27T04:34:21.482Z,17.50
2018-12-27T04:36:50.445Z,18.40
2018-12-27T04:39:18.942Z,19.37
2018-12-27T04:41:48.478Z,21.20
2018-12-27T04:44:16.961Z,21.33
2018-12-27T04:46:45.382Z,19.73
2018-12-27T04:49:13.836Z,17.73
2018-12-27T04:51:42.230Z,19.40
2018-12-27T04:54:10.649Z,20.40
2018-12-27T04:56:39.474Z,20.27
2018-12-27T04:59:07.898Z,17.37
2018-12-27T05:01:36.302Z,15.87
2018-12-27T05:04:04.706Z,20.20
2018-12-27T05:06:33.143Z,18.13
2018-12-27T05:09:01.626Z,20.20
2018-12-27T05:11:30.053Z,19.93
2018-12-27T05:13:58.462Z,22.77
2018-12-27T05:16:26.871Z,20.07
2018-12-27T05:18:55.279Z,21.90
2018-12-27T05:21:23.765Z,23.93
2018-12-27T05:23:52.246Z,21.30
2018-12-27T05:26:20.666Z,22.73
2018-12-27T05:28:49.054Z,16.20
2018-12-27T05:31:17.466Z,19.33
2018-12-27T05:33:46.246Z,19.93
2018-12-27T05:36:14.670Z,22.10
2018-12-27T05:38:43.078Z,17.30
2018-12-27T05:41:11.477Z,23.77
2018-12-27T05:43:39.890Z,21.80
2018-12-27T05:46:08.697Z,26.57
2018-12-27T05:48:37.122Z,20.67
2018-12-27T05:51:05.514Z,20.77
2018-12-27T05:53:33.934Z,23.37
2018-12-27T05:56:02.431Z,23.93
2018-12-27T05:58:30.926Z,21.73
2018-12-27T06:00:59.334Z,28.60
2018-12-27T06:03:27.769Z,29.00
2018-12-27T06:05:56.630Z,30.57
2018-12-27T06:08:25.042Z,25.37
2018-12-27T06:10:53.534Z,31.57
2018-12-27T06:13:22.006Z,27.17
2018-12-27T06:15:50.494Z,27.10
2018-12-27T06:18:18.895Z,27.70
2018-12-27T06:20:47.316Z,26.30
2018-12-27T06:23:15.731Z,23.23
2018-12-27T06:25:44.130Z,21.30
2018-12-27T06:28:12.971Z,23.20
2018-12-27T06:30:41.751Z,21.67
2018-12-27T06:33:10.271Z,23.77
2018-12-27T06:35:38.787Z,26.20
2018-12-27T06:38:07.372Z,25.23
2018-12-27T06:40:35.775Z,26.77
2018-12-27T06:43:04.255Z,20.87
2018-12-27T06:45:32.707Z,20.67
2018-12-27T06:48:01.192Z,16.73
2018-12-27T06:50:29.695Z,19.40
2018-12-27T06:52:58.116Z,19.20
2018-12-27T06:55:26.824Z,18.33
2018-12-27T06:57:55.313Z,19.83
2018-12-27T07:00:23.824Z,18.07
2018-12-27T07:02:52.228Z,19.60
2018-12-27T07:05:20.632Z,17.70
2018-12-27T07:07:49.060Z,21.17
2018-12-27T07:10:17.464Z,15.20
2018-12-27T07:12:45.881Z,16.30
2018-12-27T07:15:14.373Z,19.97
2018-12-27T07:17:42.776Z,19.80
2018-12-27T07:20:11.181Z,18.60
2018-12-27T07:22:39.648Z,18.00
2018-12-27T07:25:08.160Z,17.23
2018-12-27T07:27:36.696Z,16.90
2018-12-27T07:30:06.109Z,15.07
2018-12-27T07:32:34.576Z,18.97
2018-12-27T07:35:03.048Z,18.23
2018-12-27T07:37:31.468Z,17.10
2018-12-27T07:39:59.884Z,19.43
2018-12-27T07:42:28.301Z,21.53
2018-12-27T07:44:56.848Z,17.10
2018-12-27T07:47:25.244Z,21.30
2018-12-27T07:49:53.720Z,18.53
2018-12-27T07:52:22.297Z,18.67
2018-12-27T07:54:50.696Z,21.00
2018-12-27T07:57:19.168Z,22.60
2018-12-27T07:59:47.709Z,17.43
2018-12-27T08:02:16.161Z,23.20
2018-12-27T08:04:44.568Z,24.40
2018-12-27T08:07:12.981Z,19.50
2018-12-27T08:09:41.421Z,20.00
2018-12-27T08:12:09.902Z,19.27
2018-12-27T08:14:38.377Z,20.30
2018-12-27T08:17:06.813Z,21.00
2018-12-27T08:19:35.241Z,21.70
2018-12-27T08:22:03.652Z,31.63
2018-12-27T08:24:32.133Z,46.47
2018-12-27T08:27:00.545Z,76.43
2018-12-27T08:29:28.977Z,50.30
2018-12-27T08:31:57.457Z,27.03
2018-12-27T08:34:25.953Z,30.27
2018-12-27T08:36:54.365Z,21.20
2018-12-27T08:39:22.781Z,23.70
2018-12-27T08:41:51.522Z,17.43
2018-12-27T08:44:19.972Z,19.60
2018-12-27T08:46:48.473Z,21.93
2018-12-27T08:49:16.881Z,20.20
2018-12-27T08:51:45.377Z,17.60
2018-12-27T08:54:13.782Z,23.17
2018-12-27T08:56:42.251Z,23.37
2018-12-27T08:59:10.677Z,19.87
2018-12-27T09:01:40.762Z,28.80
2018-12-27T09:04:09.410Z,41.90
2018-12-27T09:06:37.917Z,56.83
2018-12-27T09:09:07.118Z,54.90
2018-12-27T09:11:35.601Z,46.47
2018-12-27T09:14:04.090Z,37.63
2018-12-27T09:16:32.570Z,23.70
2018-12-27T09:19:01.613Z,19.53
2018-12-27T09:21:30.496Z,17.67
2018-12-27T09:23:59.361Z,18.10
2018-12-27T09:26:28.254Z,20.97
2018-12-27T09:28:57.133Z,19.23
2018-12-27T09:31:26.161Z,18.23
2018-12-27T09:33:55.505Z,19.33
2018-12-27T09:36:24.451Z,26.20
2018-12-27T09:38:53.494Z,18.23
2018-12-27T09:41:22.849Z,18.50
2018-12-27T09:43:51.729Z,20.33
2018-12-27T09:46:20.761Z,17.00
2018-12-27T09:48:50.250Z,19.53
2018-12-27T09:51:19.115Z,14.93
2018-12-27T09:53:48.070Z,15.10
2018-12-27T09:56:16.968Z,14.47
2018-12-27T09:58:46.018Z,14.60
2018-12-27T10:01:14.958Z,16.70
2018-12-27T10:03:43.834Z,13.80
2018-12-27T10:06:12.318Z,17.93
2018-12-27T10:08:41.642Z,15.63
2018-12-27T10:11:10.378Z,17.83
2018-12-27T10:13:39.338Z,15.60
2018-12-27T10:16:08.295Z,12.73
2018-12-27T10:18:37.838Z,15.77
2018-12-27T10:21:07.054Z,11.67
2018-12-27T10:23:35.937Z,13.43
2018-12-27T10:26:04.875Z,10.10
2018-12-27T10:28:33.762Z,14.80
2018-12-27T10:31:02.691Z,11.87
2018-12-27T10:33:31.571Z,13.60
2018-12-27T10:36:00.754Z,14.63
2018-12-27T10:38:29.666Z,13.77
2018-12-27T10:40:58.627Z,13.77
2018-12-27T10:43:27.587Z,17.10
2018-12-27T10:45:56.476Z,15.60
2018-12-27T10:48:25.512Z,11.17
2018-12-27T10:50:54.463Z,13.20
2018-12-27T10:53:23.343Z,14.83
2018-12-27T10:55:52.226Z,12.67
2018-12-27T10:58:21.142Z,12.00
2018-12-27T11:00:50.331Z,14.63
2018-12-27T11:03:19.315Z,11.67
2018-12-27T11:05:48.988Z,13.70
2018-12-27T11:08:18.172Z,14.87
2018-12-27T11:10:47.100Z,12.90
2018-12-27T11:13:16.444Z,17.77
2018-12-27T11:15:45.408Z,10.17
2018-12-27T11:18:14.639Z,8.77
2018-12-27T11:20:43.824Z,10.50
2018-12-27T11:23:12.733Z,16.83
2018-12-27T11:25:41.619Z,10.87
2018-12-27T11:28:10.652Z,12.20
2018-12-27T11:30:39.708Z,10.50
2018-12-27T11:33:09.012Z,8.73
2018-12-27T11:35:37.888Z,9.53
2018-12-27T11:38:06.844Z,14.33
2018-12-27T11:40:35.900Z,8.80
2018-12-27T11:43:04.879Z,8.70
2018-12-27T11:45:34.216Z,8.50
2018-12-27T11:48:03.244Z,14.67
2018-12-27T11:50:32.221Z,15.57
2018-12-27T11:53:01.183Z,9.77
2018-12-27T11:55:30.364Z,11.60
2018-12-27T11:57:59.240Z,10.53
2018-12-27T12:00:28.128Z,15.23
2018-12-27T12:02:57.017Z,8.97
2018-12-27T12:05:26.016Z,12.97
2018-12-27T12:07:55.408Z,12.87
2018-12-27T12:10:24.340Z,12.27
2018-12-27T12:12:53.327Z,11.03
2018-12-27T12:15:22.272Z,7.80
2018-12-27T12:17:51.560Z,9.10
2018-12-27T12:20:20.537Z,9.77
2018-12-27T12:22:49.440Z,11.07
2018-12-27T12:25:18.321Z,8.70
2018-12-27T12:27:47.200Z,9.03
2018-12-27T12:30:16.580Z,11.00
2018-12-27T12:32:45.543Z,10.40
2018-12-27T12:35:14.620Z,11.27
2018-12-27T12:37:44.366Z,12.70
2018-12-27T12:40:13.391Z,11.40
2018-12-27T12:42:42.281Z,9.07
2018-12-27T12:45:11.325Z,9.60
2018-12-27T12:47:40.285Z,10.70
2018-12-27T12:50:09.600Z,11.03
2018-12-27T12:52:39.331Z,13.63
2018-12-27T12:55:08.397Z,15.33
2018-12-27T12:57:37.417Z,14.43
2018-12-27T13:00:08.961Z,11.10
2018-12-27T13:02:38.789Z,15.40
2018-12-27T13:05:08.121Z,14.13
2018-12-27T13:07:37.141Z,13.80
2018-12-27T13:10:06.313Z,11.50
2018-12-27T13:12:35.262Z,10.30
2018-12-27T13:15:04.414Z,9.97
2018-12-27T13:17:33.385Z,12.03
2018-12-27T13:20:02.414Z,8.73
2018-12-27T13:22:31.402Z,12.50
2018-12-27T13:25:00.326Z,13.80
2018-12-27T13:27:29.818Z,12.47
2018-12-27T13:29:59.156Z,8.87
2018-12-27T13:32:28.166Z,9.90
2018-12-27T13:34:57.209Z,9.33
2018-12-27T13:37:26.286Z,9.20
2018-12-27T13:39:55.258Z,11.03
2018-12-27T13:42:24.166Z,12.80
2018-12-27T13:44:53.022Z,10.03
2018-12-27T13:47:22.022Z,13.00
2018-12-27T13:49:50.890Z,10.20
2018-12-27T13:52:19.830Z,14.60
2018-12-27T13:55:07.942Z,11.17
2018-12-27T13:57:56.027Z,13.97
2018-12-27T14:00:44.194Z,14.17
2018-12-27T14:03:32.282Z,14.23
2018-12-27T14:06:01.390Z,13.10
2018-12-27T14:08:49.483Z,17.77
2018-12-27T14:11:18.459Z,13.83
2018-12-27T14:14:06.639Z,18.73
2018-12-27T14:16:54.749Z,12.20
2018-12-27T14:19:42.839Z,14.00
2018-12-27T14:22:31.035Z,11.47
2018-12-27T14:25:19.191Z,12.77
2018-12-27T14:28:07.366Z,16.87
2018-12-27T14:30:36.466Z,16.60
2018-12-27T14:33:24.687Z,17.80
2018-12-27T14:36:12.855Z,17.60
2018-12-27T14:39:00.971Z,13.83
2018-12-27T14:41:49.351Z,18.10
2018-12-27T14:44:18.362Z,19.50
2018-12-27T14:47:06.534Z,16.97
2018-12-27T14:49:54.703Z,19.63
2018-12-27T14:52:42.891Z,14.80
2018-12-27T14:55:30.511Z,16.90
2018-12-27T14:57:59.128Z,17.17
2018-12-27T15:00:46.747Z,17.53
2018-12-27T15:03:34.403Z,18.23
2018-12-27T15:06:22.023Z,16.50
2018-12-27T15:08:50.679Z,15.07
2018-12-27T15:11:19.443Z,13.57
2018-12-27T15:14:07.071Z,14.73
2018-12-27T15:16:54.691Z,24.17
2018-12-27T15:19:42.315Z,19.43
2018-12-27T15:22:29.915Z,14.90
2018-12-27T15:25:17.551Z,15.83
2018-12-27T15:28:05.159Z,16.70
2018-12-27T15:30:52.795Z,19.43
2018-12-27T15:33:40.421Z,17.80
2018-12-27T15:36:28.039Z,21.27
2018-12-27T15:39:15.667Z,20.73
2018-12-27T15:42:03.300Z,21.00
2018-12-27T17:33:05.802Z,30.33
2018-12-27T17:35:45.946Z,32.97
2018-12-27T17:38:25.990Z,28.90
2018-12-27T17:41:04.314Z,29.90
2018-12-27T19:01:22.731Z,27.67
2018-12-27T19:03:51.148Z,22.90
2018-12-27T19:06:19.943Z,27.23
2018-12-27T19:09:07.927Z,26.90
2018-12-27T19:11:55.528Z,27.43
2018-12-27T19:14:43.407Z,23.73
2018-12-27T19:17:31.023Z,25.47
2018-12-27T19:20:18.643Z,19.63
2018-12-27T19:23:06.651Z,22.30
2018-12-27T19:25:54.271Z,22.97
2018-12-27T19:28:41.887Z,21.70
2018-12-27T19:31:29.507Z,24.10
2018-12-27T19:34:17.864Z,25.97
2018-12-27T19:37:05.743Z,26.17
2018-12-27T19:39:53.362Z,22.80
2018-12-27T19:42:41.085Z,29.73
2018-12-27T19:51:24.196Z,35.63
2018-12-27T19:54:11.823Z,37.77
2018-12-27T19:56:40.240Z,40.23
2018-12-27T19:59:08.732Z,31.63
2018-12-27T20:01:37.240Z,22.33
2018-12-27T20:04:05.672Z,26.87
2018-12-27T20:06:34.153Z,25.20
2018-12-27T20:09:02.609Z,28.37
2018-12-27T20:11:31.034Z,26.83
2018-12-27T20:13:59.452Z,24.00
2018-12-27T20:16:27.945Z,23.33
2018-12-27T20:18:56.850Z,23.37
2018-12-27T20:21:25.252Z,18.67
2018-12-27T20:23:53.657Z,20.27
2018-12-27T20:26:22.061Z,26.33
2018-12-27T20:28:50.542Z,26.13
2018-12-27T20:31:19.051Z,29.50
2018-12-27T20:33:47.577Z,28.73
2018-12-27T20:36:16.292Z,27.97
2018-12-27T20:38:45.300Z,24.23
2018-12-27T20:41:14.053Z,29.37
2018-12-27T20:43:42.484Z,28.37
2018-12-27T20:46:10.912Z,32.70
2018-12-27T20:48:39.465Z,31.77
2018-12-27T20:51:08.029Z,32.33
2018-12-27T20:53:36.428Z,31.97
2018-12-27T20:56:04.849Z,37.33
2018-12-27T20:58:33.285Z,39.87
2018-12-27T21:01:01.950Z,40.13
2018-12-27T21:03:30.381Z,39.50
2018-12-27T21:05:58.946Z,45.90
2018-12-27T21:08:27.364Z,57.17
2018-12-27T21:10:55.781Z,46.20
2018-12-27T21:13:24.273Z,53.43
2018-12-27T21:15:52.876Z,72.47
2018-12-27T21:18:21.421Z,61.53
2018-12-27T21:20:49.917Z,45.77
2018-12-27T21:23:18.349Z,43.77
2018-12-27T21:25:46.845Z,50.07
2018-12-27T21:28:15.670Z,54.70
2018-12-27T21:30:44.114Z,59.50
2018-12-27T21:33:12.578Z,61.40
2018-12-27T21:35:40.977Z,54.40
2018-12-27T21:38:09.425Z,50.03
2018-12-27T21:40:37.830Z,50.13
2018-12-27T21:43:06.478Z,41.23
2018-12-27T21:45:34.990Z,42.30
2018-12-27T21:48:03.505Z,46.30
2018-12-27T21:50:32.106Z,43.73
2018-12-27T21:53:00.522Z,45.43
2018-12-27T21:55:29.018Z,50.40
2018-12-27T21:57:57.450Z,47.50
2018-12-27T22:00:25.930Z,39.90
2018-12-27T22:02:54.615Z,46.10
2018-12-27T22:05:23.172Z,47.00
2018-12-27T22:07:51.676Z,57.73
2018-12-27T22:10:20.226Z,52.07
2018-12-27T22:12:48.710Z,51.97
2018-12-27T22:15:17.487Z,49.63
2018-12-27T22:17:45.986Z,45.90
2018-12-27T22:20:14.462Z,46.43
2018-12-27T22:22:42.894Z,40.87
2018-12-27T22:25:11.302Z,37.27
2018-12-27T22:27:39.725Z,30.00
2018-12-27T22:30:08.206Z,43.40
2018-12-27T22:32:36.622Z,47.57
2018-12-27T22:35:05.136Z,51.57
2018-12-27T22:37:33.607Z,42.37
2018-12-27T22:40:02.044Z,39.97
2018-12-27T22:42:30.506Z,43.53
2018-12-27T22:44:58.918Z,43.40
2018-12-27T22:47:27.391Z,45.70
2018-12-27T22:49:55.863Z,38.43
2018-12-27T22:52:24.270Z,36.07
2018-12-27T22:54:52.679Z,32.07
2018-12-27T22:57:21.083Z,36.67
2018-12-27T22:59:49.531Z,32.80
2018-12-27T23:02:18.027Z,39.07
2018-12-27T23:04:46.447Z,45.63
2018-12-27T23:07:14.887Z,54.73
2018-12-27T23:09:43.375Z,41.43
2018-12-27T23:12:11.931Z,47.87
2018-12-27T23:14:40.415Z,47.13
2018-12-27T23:17:08.848Z,49.97
2018-12-27T23:19:37.259Z,45.80
2018-12-27T23:22:05.771Z,49.80
2018-12-27T23:24:34.183Z,52.50
2018-12-27T23:27:02.595Z,46.97
2018-12-27T23:29:31.031Z,39.77
2018-12-27T23:31:59.511Z,34.63
2018-12-27T23:34:27.947Z,29.37
2018-12-27T23:36:56.371Z,30.47
2018-12-27T23:39:24.868Z,30.00
2018-12-27T23:41:53.896Z,37.20
2018-12-27T23:44:22.315Z,29.30
2018-12-27T23:46:50.743Z,30.47
2018-12-27T23:49:19.247Z,31.73
2018-12-27T23:51:47.736Z,27.77
2018-12-27T23:54:16.232Z,26.50
2018-12-27T23:56:44.815Z,29.73
2018-12-27T23:59:13.228Z,20.03
